Chapelhill, Indiana
Current Conditions -  °F | °C
As of 10:53 PM on Tuesday 21 Oct 2014 (Local Time) from KBMG Reporting Station
Broken Clouds Broken Clouds  
Wind Chill: 46°   Ceiling: 3900
Heat Index: 48°   Visibility: 10mi
Dew Point: 43°   Wind: 5mph
Humidity: 83%   Direction: 350°N
Pressure: 30.19"   Gusts: NA
Location:  38.9403°N, 86.3374°W
Report Text: KBMG 220253Z AUTO 35004KT 10SM BKN039 09/06 A3019 RMK AO2 SLP223 T00890061 52016 $
Loading
Personal Weather Stations






























Interactive Weather Map
Tropical Storm Tracking
New forecast layout! Learn more

10-Day Weather Forecast

Advertisements
Track Severe Weather on mobile